Terminal Aerodrome Forecast
Issued by NWS Springfield, MO

Home | Current Version | Previous Version | Graphics & Text | Print | Product List | Glossary On
Versions: 1 2 3 4 5 6 7 8 9 10 11 12 13 14 15
806
FTUS43 KSGF 071738
TAFSGF
TAF
KSGF 071738Z 0718/0818 28014G22KT P6SM BKN200
     FM080000 29012KT P6SM OVC120
     FM080900 32013G20KT P6SM OVC050
     FM081300 31021G32KT P6SM OVC040
      TEMPO 0814/0818 -SHSN OVC035=

USA.gov is the U.S. government's official web portal to all federal, state and local government web resources and services.